sensor_id;sensor_type;location;lat;lon;timestamp;P1;durP1;ratioP1;P2;durP2;ratioP2
39102;SDS011;24847;48.218;16.414;2023-04-16T00:04:18;1.35;;;1.25;;
39102;SDS011;24847;48.218;16.414;2023-04-16T00:09:20;1.30;;;1.20;;
39102;SDS011;24847;48.218;16.414;2023-04-16T00:14:24;1.70;;;1.40;;
39102;SDS011;24847;48.218;16.414;2023-04-16T00:19:26;1.85;;;1.50;;
39102;SDS011;24847;48.218;16.414;2023-04-16T00:24:28;1.63;;;1.38;;
39102;SDS011;24847;48.218;16.414;2023-04-16T00:29:32;2.58;;;1.70;;
39102;SDS011;24847;48.218;16.414;2023-04-16T00:34:34;2.30;;;1.40;;
39102;SDS011;24847;48.218;16.414;2023-04-16T00:39:37;1.80;;;1.60;;
39102;SDS011;24847;48.218;16.414;2023-04-16T00:44:40;1.70;;;1.58;;
39102;SDS011;24847;48.218;16.414;2023-04-16T00:49:42;1.67;;;1.58;;
39102;SDS011;24847;48.218;16.414;2023-04-16T00:54:45;2.03;;;1.83;;
39102;SDS011;24847;48.218;16.414;2023-04-16T00:59:48;2.50;;;1.80;;
39102;SDS011;24847;48.218;16.414;2023-04-16T01:04:51;2.63;;;2.13;;
39102;SDS011;24847;48.218;16.414;2023-04-16T01:09:54;2.78;;;2.00;;
39102;SDS011;24847;48.218;16.414;2023-04-16T01:14:57;2.22;;;1.95;;
39102;SDS011;24847;48.218;16.414;2023-04-16T01:20:00;2.22;;;2.03;;
39102;SDS011;24847;48.218;16.414;2023-04-16T01:25:03;2.75;;;2.45;;
39102;SDS011;24847;48.218;16.414;2023-04-16T01:30:06;2.35;;;2.15;;
39102;SDS011;24847;48.218;16.414;2023-04-16T01:35:10;2.22;;;1.98;;
39102;SDS011;24847;48.218;16.414;2023-04-16T01:40:13;2.58;;;2.38;;
39102;SDS011;24847;48.218;16.414;2023-04-16T01:45:16;3.25;;;2.95;;
39102;SDS011;24847;48.218;16.414;2023-04-16T01:50:18;2.95;;;2.65;;
39102;SDS011;24847;48.218;16.414;2023-04-16T01:55:23;2.97;;;2.63;;
39102;SDS011;24847;48.218;16.414;2023-04-16T02:00:26;3.33;;;2.55;;
39102;SDS011;24847;48.218;16.414;2023-04-16T02:05:28;2.85;;;2.55;;
39102;SDS011;24847;48.218;16.414;2023-04-16T02:10:32;3.22;;;2.40;;
39102;SDS011;24847;48.218;16.414;2023-04-16T02:15:34;3.63;;;3.20;;
39102;SDS011;24847;48.218;16.414;2023-04-16T02:20:38;3.30;;;2.90;;
39102;SDS011;24847;48.218;16.414;2023-04-16T02:25:43;3.90;;;2.90;;
39102;SDS011;24847;48.218;16.414;2023-04-16T02:30:47;3.20;;;2.70;;
39102;SDS011;24847;48.218;16.414;2023-04-16T02:35:49;3.20;;;2.90;;
39102;SDS011;24847;48.218;16.414;2023-04-16T02:40:53;3.33;;;3.00;;
39102;SDS011;24847;48.218;16.414;2023-04-16T02:45:55;2.90;;;2.63;;
39102;SDS011;24847;48.218;16.414;2023-04-16T02:50:58;3.72;;;3.40;;
39102;SDS011;24847;48.218;16.414;2023-04-16T02:56:02;3.50;;;3.13;;
39102;SDS011;24847;48.218;16.414;2023-04-16T03:01:05;3.83;;;2.92;;
39102;SDS011;24847;48.218;16.414;2023-04-16T03:06:07;3.40;;;3.10;;
39102;SDS011;24847;48.218;16.414;2023-04-16T03:11:11;3.55;;;3.25;;
39102;SDS011;24847;48.218;16.414;2023-04-16T03:16:13;4.30;;;3.35;;
39102;SDS011;24847;48.218;16.414;2023-04-16T03:21:15;3.85;;;3.53;;
39102;SDS011;24847;48.218;16.414;2023-04-16T03:26:19;3.60;;;3.30;;
39102;SDS011;24847;48.218;16.414;2023-04-16T03:31:22;3.70;;;3.30;;
39102;SDS011;24847;48.218;16.414;2023-04-16T03:36:24;6.53;;;5.63;;
39102;SDS011;24847;48.218;16.414;2023-04-16T03:41:28;4.15;;;3.72;;
39102;SDS011;24847;48.218;16.414;2023-04-16T03:46:31;4.55;;;4.10;;
39102;SDS011;24847;48.218;16.414;2023-04-16T03:51:33;4.38;;;3.97;;
39102;SDS011;24847;48.218;16.414;2023-04-16T03:56:36;4.18;;;3.67;;
39102;SDS011;24847;48.218;16.414;2023-04-16T04:01:41;4.63;;;4.18;;
39102;SDS011;24847;48.218;16.414;2023-04-16T04:06:43;5.22;;;4.00;;
39102;SDS011;24847;48.218;16.414;2023-04-16T04:11:48;5.03;;;4.55;;
39102;SDS011;24847;48.218;16.414;2023-04-16T04:16:51;5.15;;;4.65;;
39102;SDS011;24847;48.218;16.414;2023-04-16T04:21:53;6.95;;;5.82;;
39102;SDS011;24847;48.218;16.414;2023-04-16T04:26:56;19.23;;;13.70;;
39102;SDS011;24847;48.218;16.414;2023-04-16T04:31:58;8.05;;;7.07;;
39102;SDS011;24847;48.218;16.414;2023-04-16T04:37:01;7.60;;;6.80;;
39102;SDS011;24847;48.218;16.414;2023-04-16T04:42:04;7.07;;;6.10;;
39102;SDS011;24847;48.218;16.414;2023-04-16T04:47:07;7.13;;;5.88;;
39102;SDS011;24847;48.218;16.414;2023-04-16T04:52:09;7.07;;;6.38;;
39102;SDS011;24847;48.218;16.414;2023-04-16T04:57:13;6.78;;;6.00;;
39102;SDS011;24847;48.218;16.414;2023-04-16T05:02:15;7.00;;;6.30;;
39102;SDS011;24847;48.218;16.414;2023-04-16T05:07:18;7.15;;;6.45;;
39102;SDS011;24847;48.218;16.414;2023-04-16T05:12:22;7.82;;;6.38;;
39102;SDS011;24847;48.218;16.414;2023-04-16T05:17:24;7.45;;;6.55;;
39102;SDS011;24847;48.218;16.414;2023-04-16T05:22:26;7.32;;;6.63;;
39102;SDS011;24847;48.218;16.414;2023-04-16T05:27:30;7.25;;;6.45;;
39102;SDS011;24847;48.218;16.414;2023-04-16T05:32:32;7.22;;;6.53;;
39102;SDS011;24847;48.218;16.414;2023-04-16T05:37:34;6.82;;;5.90;;
39102;SDS011;24847;48.218;16.414;2023-04-16T05:42:38;6.43;;;5.82;;
39102;SDS011;24847;48.218;16.414;2023-04-16T05:47:42;6.20;;;5.60;;
39102;SDS011;24847;48.218;16.414;2023-04-16T05:52:44;6.72;;;6.03;;
39102;SDS011;24847;48.218;16.414;2023-04-16T05:57:48;6.32;;;5.72;;
39102;SDS011;24847;48.218;16.414;2023-04-16T06:02:50;6.70;;;6.00;;
39102;SDS011;24847;48.218;16.414;2023-04-16T06:07:52;6.18;;;5.63;;
39102;SDS011;24847;48.218;16.414;2023-04-16T06:12:56;7.28;;;6.47;;
39102;SDS011;24847;48.218;16.414;2023-04-16T06:17:58;6.72;;;6.03;;
39102;SDS011;24847;48.218;16.414;2023-04-16T06:23:01;6.25;;;5.63;;
39102;SDS011;24847;48.218;16.414;2023-04-16T06:28:04;6.43;;;5.82;;
39102;SDS011;24847;48.218;16.414;2023-04-16T06:33:06;6.53;;;5.93;;
39102;SDS011;24847;48.218;16.414;2023-04-16T06:38:09;6.28;;;5.68;;
39102;SDS011;24847;48.218;16.414;2023-04-16T06:43:12;5.85;;;5.32;;
39102;SDS011;24847;48.218;16.414;2023-04-16T06:48:15;18.08;;;11.27;;
39102;SDS011;24847;48.218;16.414;2023-04-16T06:53:17;7.18;;;6.10;;
39102;SDS011;24847;48.218;16.414;2023-04-16T06:58:21;6.40;;;5.80;;
39102;SDS011;24847;48.218;16.414;2023-04-16T07:03:23;5.95;;;5.43;;
39102;SDS011;24847;48.218;16.414;2023-04-16T07:08:25;5.10;;;4.65;;
39102;SDS011;24847;48.218;16.414;2023-04-16T07:13:29;5.50;;;5.00;;
39102;SDS011;24847;48.218;16.414;2023-04-16T07:18:31;4.60;;;4.20;;
39102;SDS011;24847;48.218;16.414;2023-04-16T07:23:33;4.63;;;4.13;;
39102;SDS011;24847;48.218;16.414;2023-04-16T07:28:37;4.72;;;4.32;;
39102;SDS011;24847;48.218;16.414;2023-04-16T07:33:39;4.55;;;4.15;;
39102;SDS011;24847;48.218;16.414;2023-04-16T07:38:42;4.22;;;3.83;;
39102;SDS011;24847;48.218;16.414;2023-04-16T07:43:45;4.15;;;3.75;;
39102;SDS011;24847;48.218;16.414;2023-04-16T07:48:47;4.25;;;3.85;;
39102;SDS011;24847;48.218;16.414;2023-04-16T07:53:50;3.95;;;3.55;;
39102;SDS011;24847;48.218;16.414;2023-04-16T07:58:53;3.70;;;3.40;;
39102;SDS011;24847;48.218;16.414;2023-04-16T08:03:55;3.70;;;3.38;;
39102;SDS011;24847;48.218;16.414;2023-04-16T08:08:58;3.72;;;3.42;;
39102;SDS011;24847;48.218;16.414;2023-04-16T08:14:02;3.92;;;3.58;;
39102;SDS011;24847;48.218;16.414;2023-04-16T08:19:04;3.70;;;3.40;;
39102;SDS011;24847;48.218;16.414;2023-04-16T08:24:06;3.90;;;3.50;;
39102;SDS011;24847;48.218;16.414;2023-04-16T08:29:10;3.22;;;3.00;;
39102;SDS011;24847;48.218;16.414;2023-04-16T08:34:12;3.20;;;2.90;;
39102;SDS011;24847;48.218;16.414;2023-04-16T08:39:14;3.13;;;2.75;;
39102;SDS011;24847;48.218;16.414;2023-04-16T08:44:20;3.22;;;2.50;;
39102;SDS011;24847;48.218;16.414;2023-04-16T08:49:26;2.58;;;2.38;;
39102;SDS011;24847;48.218;16.414;2023-04-16T08:54:30;2.10;;;1.92;;
39102;SDS011;24847;48.218;16.414;2023-04-16T08:59:39;2.08;;;1.88;;
39102;SDS011;24847;48.218;16.414;2023-04-16T09:04:46;3.22;;;2.92;;
39102;SDS011;24847;48.218;16.414;2023-04-16T09:09:51;2.17;;;1.98;;
39102;SDS011;24847;48.218;16.414;2023-04-16T09:14:55;1.73;;;1.60;;
39102;SDS011;24847;48.218;16.414;2023-04-16T09:19:58;2.90;;;2.17;;
39102;SDS011;24847;48.218;16.414;2023-04-16T09:25:01;11.13;;;6.57;;
39102;SDS011;24847;48.218;16.414;2023-04-16T09:35:24;3.17;;;2.60;;
39102;SDS011;24847;48.218;16.414;2023-04-16T09:40:26;3.22;;;2.67;;
39102;SDS011;24847;48.218;16.414;2023-04-16T09:45:31;2.00;;;1.80;;
39102;SDS011;24847;48.218;16.414;2023-04-16T09:50:49;2.78;;;2.58;;
39102;SDS011;24847;48.218;16.414;2023-04-16T09:55:54;2.42;;;1.95;;
39102;SDS011;24847;48.218;16.414;2023-04-16T10:01:01;1.50;;;1.40;;
39102;SDS011;24847;48.218;16.414;2023-04-16T10:06:06;1.17;;;1.08;;
39102;SDS011;24847;48.218;16.414;2023-04-16T10:11:10;1.40;;;1.10;;
39102;SDS011;24847;48.218;16.414;2023-04-16T10:16:13;1.50;;;1.40;;
39102;SDS011;24847;48.218;16.414;2023-04-16T10:21:16;1.50;;;1.30;;
39102;SDS011;24847;48.218;16.414;2023-04-16T10:26:19;1.30;;;1.20;;
39102;SDS011;24847;48.218;16.414;2023-04-16T10:31:24;1.23;;;1.13;;
39102;SDS011;24847;48.218;16.414;2023-04-16T10:36:27;1.17;;;1.10;;
39102;SDS011;24847;48.218;16.414;2023-04-16T10:41:31;1.27;;;1.17;;
39102;SDS011;24847;48.218;16.414;2023-04-16T10:46:36;1.27;;;1.17;;
39102;SDS011;24847;48.218;16.414;2023-04-16T10:51:40;1.70;;;1.60;;
39102;SDS011;24847;48.218;16.414;2023-04-16T10:56:43;1.60;;;1.50;;
39102;SDS011;24847;48.218;16.414;2023-04-16T11:01:48;1.60;;;1.50;;
39102;SDS011;24847;48.218;16.414;2023-04-16T11:06:59;1.60;;;1.50;;
39102;SDS011;24847;48.218;16.414;2023-04-16T11:12:03;1.65;;;1.55;;
39102;SDS011;24847;48.218;16.414;2023-04-16T11:17:11;1.30;;;1.20;;
39102;SDS011;24847;48.218;16.414;2023-04-16T11:22:17;1.50;;;1.40;;
39102;SDS011;24847;48.218;16.414;2023-04-16T11:27:22;1.30;;;1.20;;
39102;SDS011;24847;48.218;16.414;2023-04-16T11:32:27;1.15;;;1.00;;
39102;SDS011;24847;48.218;16.414;2023-04-16T11:37:32;0.90;;;0.90;;
39102;SDS011;24847;48.218;16.414;2023-04-16T11:42:35;1.23;;;1.13;;
39102;SDS011;24847;48.218;16.414;2023-04-16T11:47:44;1.40;;;0.95;;
39102;SDS011;24847;48.218;16.414;2023-04-16T11:52:51;1.00;;;0.90;;
39102;SDS011;24847;48.218;16.414;2023-04-16T11:57:54;1.13;;;1.02;;
39102;SDS011;24847;48.218;16.414;2023-04-16T12:03:01;0.80;;;0.80;;
39102;SDS011;24847;48.218;16.414;2023-04-16T12:08:07;1.10;;;1.00;;
39102;SDS011;24847;48.218;16.414;2023-04-16T12:13:11;0.93;;;0.73;;
39102;SDS011;24847;48.218;16.414;2023-04-16T12:18:18;1.00;;;0.80;;
39102;SDS011;24847;48.218;16.414;2023-04-16T12:23:23;1.05;;;0.95;;
39102;SDS011;24847;48.218;16.414;2023-04-16T12:28:30;1.13;;;1.02;;
39102;SDS011;24847;48.218;16.414;2023-04-16T12:33:37;1.10;;;1.00;;
39102;SDS011;24847;48.218;16.414;2023-04-16T12:38:39;0.95;;;0.85;;
39102;SDS011;24847;48.218;16.414;2023-04-16T12:43:41;0.75;;;0.75;;
39102;SDS011;24847;48.218;16.414;2023-04-16T12:48:45;0.65;;;0.65;;
39102;SDS011;24847;48.218;16.414;2023-04-16T12:53:49;0.57;;;0.57;;
39102;SDS011;24847;48.218;16.414;2023-04-16T12:58:51;0.70;;;0.60;;
39102;SDS011;24847;48.218;16.414;2023-04-16T13:03:54;1.10;;;0.90;;
39102;SDS011;24847;48.218;16.414;2023-04-16T13:08:57;1.40;;;0.95;;
39102;SDS011;24847;48.218;16.414;2023-04-16T13:13:59;1.05;;;0.95;;
39102;SDS011;24847;48.218;16.414;2023-04-16T13:19:03;0.82;;;0.82;;
39102;SDS011;24847;48.218;16.414;2023-04-16T13:24:07;0.70;;;0.70;;
39102;SDS011;24847;48.218;16.414;2023-04-16T13:29:14;0.63;;;0.63;;
39102;SDS011;24847;48.218;16.414;2023-04-16T13:34:18;0.80;;;0.80;;
39102;SDS011;24847;48.218;16.414;2023-04-16T13:39:20;0.88;;;0.73;;
39102;SDS011;24847;48.218;16.414;2023-04-16T13:44:23;0.75;;;0.75;;
39102;SDS011;24847;48.218;16.414;2023-04-16T13:49:27;1.08;;;0.82;;
39102;SDS011;24847;48.218;16.414;2023-04-16T13:54:32;0.75;;;0.63;;
39102;SDS011;24847;48.218;16.414;2023-04-16T13:59:34;0.93;;;0.80;;
39102;SDS011;24847;48.218;16.414;2023-04-16T14:04:38;0.80;;;0.73;;
39102;SDS011;24847;48.218;16.414;2023-04-16T14:09:41;1.05;;;0.93;;
39102;SDS011;24847;48.218;16.414;2023-04-16T14:14:43;0.70;;;0.70;;
39102;SDS011;24847;48.218;16.414;2023-04-16T14:19:47;0.90;;;0.80;;
39102;SDS011;24847;48.218;16.414;2023-04-16T14:24:49;1.73;;;0.80;;
39102;SDS011;24847;48.218;16.414;2023-04-16T14:29:51;0.57;;;0.57;;
39102;SDS011;24847;48.218;16.414;2023-04-16T14:34:55;0.70;;;0.60;;
39102;SDS011;24847;48.218;16.414;2023-04-16T14:39:58;0.68;;;0.60;;
39102;SDS011;24847;48.218;16.414;2023-04-16T14:45:01;0.80;;;0.73;;
39102;SDS011;24847;48.218;16.414;2023-04-16T14:50:07;0.90;;;0.80;;
39102;SDS011;24847;48.218;16.414;2023-04-16T14:55:10;0.90;;;0.90;;
39102;SDS011;24847;48.218;16.414;2023-04-16T15:00:13;0.70;;;0.63;;
39102;SDS011;24847;48.218;16.414;2023-04-16T15:05:19;0.60;;;0.60;;
39102;SDS011;24847;48.218;16.414;2023-04-16T15:10:21;0.85;;;0.70;;
39102;SDS011;24847;48.218;16.414;2023-04-16T15:15:24;0.80;;;0.75;;
39102;SDS011;24847;48.218;16.414;2023-04-16T15:20:28;0.75;;;0.70;;
39102;SDS011;24847;48.218;16.414;2023-04-16T15:25:31;0.63;;;0.63;;
39102;SDS011;24847;48.218;16.414;2023-04-16T15:30:36;0.80;;;0.80;;
39102;SDS011;24847;48.218;16.414;2023-04-16T15:35:41;0.77;;;0.70;;
39102;SDS011;24847;48.218;16.414;2023-04-16T15:40:44;1.23;;;0.88;;
39102;SDS011;24847;48.218;16.414;2023-04-16T15:45:47;0.68;;;0.68;;
39102;SDS011;24847;48.218;16.414;2023-04-16T15:50:53;0.80;;;0.80;;
39102;SDS011;24847;48.218;16.414;2023-04-16T15:55:56;5.15;;;3.53;;
39102;SDS011;24847;48.218;16.414;2023-04-16T16:00:58;6.97;;;4.45;;
39102;SDS011;24847;48.218;16.414;2023-04-16T16:06:03;6.68;;;5.20;;
39102;SDS011;24847;48.218;16.414;2023-04-16T16:11:07;5.75;;;4.38;;
39102;SDS011;24847;48.218;16.414;2023-04-16T16:16:11;5.05;;;3.50;;
39102;SDS011;24847;48.218;16.414;2023-04-16T16:21:15;4.22;;;3.20;;
39102;SDS011;24847;48.218;16.414;2023-04-16T16:26:18;2.08;;;1.80;;
39102;SDS011;24847;48.218;16.414;2023-04-16T16:31:22;1.60;;;1.50;;
39102;SDS011;24847;48.218;16.414;2023-04-16T16:36:26;1.58;;;1.42;;
39102;SDS011;24847;48.218;16.414;2023-04-16T16:41:29;1.73;;;1.52;;
39102;SDS011;24847;48.218;16.414;2023-04-16T16:46:31;1.73;;;1.40;;
39102;SDS011;24847;48.218;16.414;2023-04-16T16:51:35;1.45;;;1.35;;
39102;SDS011;24847;48.218;16.414;2023-04-16T16:56:37;1.40;;;1.30;;
39102;SDS011;24847;48.218;16.414;2023-04-16T17:01:42;1.52;;;1.42;;
39102;SDS011;24847;48.218;16.414;2023-04-16T17:06:46;2.08;;;1.42;;
39102;SDS011;24847;48.218;16.414;2023-04-16T17:11:49;1.50;;;1.40;;
39102;SDS011;24847;48.218;16.414;2023-04-16T17:16:52;2.05;;;1.77;;
39102;SDS011;24847;48.218;16.414;2023-04-16T17:21:56;2.05;;;1.92;;
39102;SDS011;24847;48.218;16.414;2023-04-16T17:26:59;2.63;;;2.42;;
39102;SDS011;24847;48.218;16.414;2023-04-16T17:32:04;2.63;;;2.40;;
39102;SDS011;24847;48.218;16.414;2023-04-16T17:37:09;2.38;;;2.17;;
39102;SDS011;24847;48.218;16.414;2023-04-16T17:42:16;5.95;;;5.00;;
39102;SDS011;24847;48.218;16.414;2023-04-16T17:47:23;8.68;;;6.80;;
39102;SDS011;24847;48.218;16.414;2023-04-16T17:52:27;5.35;;;4.80;;
39102;SDS011;24847;48.218;16.414;2023-04-16T17:57:30;4.57;;;4.18;;
39102;SDS011;24847;48.218;16.414;2023-04-16T18:02:36;3.97;;;3.60;;
39102;SDS011;24847;48.218;16.414;2023-04-16T18:07:41;3.17;;;2.90;;
39102;SDS011;24847;48.218;16.414;2023-04-16T18:12:46;3.20;;;2.90;;
39102;SDS011;24847;48.218;16.414;2023-04-16T18:17:49;2.55;;;2.35;;
39102;SDS011;24847;48.218;16.414;2023-04-16T18:22:53;3.05;;;2.50;;
39102;SDS011;24847;48.218;16.414;2023-04-16T18:27:56;5.75;;;4.90;;
39102;SDS011;24847;48.218;16.414;2023-04-16T18:33:00;3.13;;;2.83;;
39102;SDS011;24847;48.218;16.414;2023-04-16T18:38:06;2.80;;;2.60;;
39102;SDS011;24847;48.218;16.414;2023-04-16T18:43:09;3.03;;;2.70;;
39102;SDS011;24847;48.218;16.414;2023-04-16T18:48:14;2.97;;;2.75;;
39102;SDS011;24847;48.218;16.414;2023-04-16T18:53:18;3.05;;;2.78;;
39102;SDS011;24847;48.218;16.414;2023-04-16T18:58:21;3.22;;;2.92;;
39102;SDS011;24847;48.218;16.414;2023-04-16T19:03:25;2.70;;;2.50;;
39102;SDS011;24847;48.218;16.414;2023-04-16T19:08:30;2.85;;;2.55;;
39102;SDS011;24847;48.218;16.414;2023-04-16T19:13:34;3.50;;;2.50;;
39102;SDS011;24847;48.218;16.414;2023-04-16T19:18:38;3.05;;;2.13;;
39102;SDS011;24847;48.218;16.414;2023-04-16T19:23:43;2.63;;;2.30;;
39102;SDS011;24847;48.218;16.414;2023-04-16T19:28:46;3.33;;;3.03;;
39102;SDS011;24847;48.218;16.414;2023-04-16T19:33:50;2.85;;;2.65;;
39102;SDS011;24847;48.218;16.414;2023-04-16T19:38:55;2.92;;;2.63;;
39102;SDS011;24847;48.218;16.414;2023-04-16T19:43:58;2.33;;;2.13;;
39102;SDS011;24847;48.218;16.414;2023-04-16T19:49:03;3.05;;;2.75;;
39102;SDS011;24847;48.218;16.414;2023-04-16T19:54:17;4.80;;;3.35;;
39102;SDS011;24847;48.218;16.414;2023-04-16T19:59:19;2.85;;;2.65;;
39102;SDS011;24847;48.218;16.414;2023-04-16T20:04:25;2.60;;;2.40;;
39102;SDS011;24847;48.218;16.414;2023-04-16T20:09:29;1.98;;;1.88;;
39102;SDS011;24847;48.218;16.414;2023-04-16T20:14:31;2.38;;;1.98;;
39102;SDS011;24847;48.218;16.414;2023-04-16T20:19:33;2.85;;;2.65;;
39102;SDS011;24847;48.218;16.414;2023-04-16T20:24:38;2.60;;;2.40;;
39102;SDS011;24847;48.218;16.414;2023-04-16T20:29:45;2.78;;;2.58;;
39102;SDS011;24847;48.218;16.414;2023-04-16T20:34:49;2.35;;;2.15;;
39102;SDS011;24847;48.218;16.414;2023-04-16T20:39:53;2.35;;;2.05;;
39102;SDS011;24847;48.218;16.414;2023-04-16T20:44:56;2.10;;;1.90;;
39102;SDS011;24847;48.218;16.414;2023-04-16T20:50:00;2.30;;;2.10;;
39102;SDS011;24847;48.218;16.414;2023-04-16T20:55:04;1.95;;;1.70;;
39102;SDS011;24847;48.218;16.414;2023-04-16T21:00:08;2.28;;;2.08;;
39102;SDS011;24847;48.218;16.414;2023-04-16T21:05:11;2.50;;;2.10;;
39102;SDS011;24847;48.218;16.414;2023-04-16T21:10:15;2.60;;;2.13;;
39102;SDS011;24847;48.218;16.414;2023-04-16T21:15:19;2.15;;;1.95;;
39102;SDS011;24847;48.218;16.414;2023-04-16T21:20:21;2.13;;;1.92;;
39102;SDS011;24847;48.218;16.414;2023-04-16T21:25:24;2.08;;;1.88;;
39102;SDS011;24847;48.218;16.414;2023-04-16T21:30:27;2.20;;;1.85;;
39102;SDS011;24847;48.218;16.414;2023-04-16T21:35:30;2.20;;;2.00;;
39102;SDS011;24847;48.218;16.414;2023-04-16T21:40:34;2.15;;;1.95;;
39102;SDS011;24847;48.218;16.414;2023-04-16T21:45:36;2.03;;;1.80;;
39102;SDS011;24847;48.218;16.414;2023-04-16T21:50:38;1.80;;;1.70;;
39102;SDS011;24847;48.218;16.414;2023-04-16T21:55:42;1.85;;;1.75;;
39102;SDS011;24847;48.218;16.414;2023-04-16T22:00:44;1.70;;;1.60;;
39102;SDS011;24847;48.218;16.414;2023-04-16T22:05:47;2.20;;;1.83;;
39102;SDS011;24847;48.218;16.414;2023-04-16T22:10:54;2.15;;;1.80;;
39102;SDS011;24847;48.218;16.414;2023-04-16T22:15:58;1.65;;;1.55;;
39102;SDS011;24847;48.218;16.414;2023-04-16T22:21:01;2.30;;;2.10;;
39102;SDS011;24847;48.218;16.414;2023-04-16T22:26:05;1.92;;;1.83;;
39102;SDS011;24847;48.218;16.414;2023-04-16T22:31:08;1.83;;;1.73;;
39102;SDS011;24847;48.218;16.414;2023-04-16T22:36:10;1.98;;;1.83;;
39102;SDS011;24847;48.218;16.414;2023-04-16T22:41:13;2.33;;;2.13;;
39102;SDS011;24847;48.218;16.414;2023-04-16T22:46:16;1.70;;;1.60;;
39102;SDS011;24847;48.218;16.414;2023-04-16T22:51:20;1.73;;;1.63;;
39102;SDS011;24847;48.218;16.414;2023-04-16T22:56:24;1.85;;;1.75;;
39102;SDS011;24847;48.218;16.414;2023-04-16T23:01:28;2.17;;;1.60;;
39102;SDS011;24847;48.218;16.414;2023-04-16T23:06:31;1.65;;;1.55;;
39102;SDS011;24847;48.218;16.414;2023-04-16T23:11:35;1.90;;;1.70;;
39102;SDS011;24847;48.218;16.414;2023-04-16T23:16:37;1.83;;;1.73;;
39102;SDS011;24847;48.218;16.414;2023-04-16T23:21:39;2.83;;;2.00;;
39102;SDS011;24847;48.218;16.414;2023-04-16T23:26:43;2.45;;;1.95;;
39102;SDS011;24847;48.218;16.414;2023-04-16T23:31:46;2.65;;;1.83;;
39102;SDS011;24847;48.218;16.414;2023-04-16T23:36:48;2.20;;;1.67;;
39102;SDS011;24847;48.218;16.414;2023-04-16T23:41:51;2.13;;;1.92;;
39102;SDS011;24847;48.218;16.414;2023-04-16T23:46:54;2.10;;;1.90;;
39102;SDS011;24847;48.218;16.414;2023-04-16T23:51:56;2.15;;;1.95;;
39102;SDS011;24847;48.218;16.414;2023-04-16T23:56:59;2.28;;;2.08;;
